sensor_id;sensor_type;location;lat;lon;timestamp;pressure;altitude;pressure_sealevel;temperature;humidity
55418;BME280;41287;47.554;7.844;2023-04-01T00:01:30;97047.72;;;17.12;57.82
55418;BME280;41287;47.554;7.844;2023-04-01T00:03:56;97046.13;;;17.11;57.91
55418;BME280;41287;47.554;7.844;2023-04-01T00:06:21;97049.63;;;17.11;57.84
55418;BME280;41287;47.554;7.844;2023-04-01T00:08:47;97043.09;;;17.12;57.77
55418;BME280;41287;47.554;7.844;2023-04-01T00:11:14;97047.72;;;17.12;57.87
55418;BME280;41287;47.554;7.844;2023-04-01T00:13:40;97043.09;;;17.12;57.95
55418;BME280;41287;47.554;7.844;2023-04-01T00:16:06;97041.94;;;17.13;57.92
55418;BME280;41287;47.554;7.844;2023-04-01T00:18:32;97039.59;;;17.12;57.93
55418;BME280;41287;47.554;7.844;2023-04-01T00:20:57;97051.22;;;17.12;57.96
55418;BME280;41287;47.554;7.844;2023-04-01T00:23:22;97049.63;;;17.11;57.94
55418;BME280;41287;47.554;7.844;2023-04-01T00:25:48;97038.81;;;17.11;57.94
55418;BME280;41287;47.554;7.844;2023-04-01T00:28:19;97051.22;;;17.12;58.02
55418;BME280;41287;47.554;7.844;2023-04-01T00:30:45;97044.22;;;17.11;58.04
55418;BME280;41287;47.554;7.844;2023-04-01T00:33:11;97038.81;;;17.11;57.97
55418;BME280;41287;47.554;7.844;2023-04-01T00:35:37;97036.88;;;17.12;57.91
55418;BME280;41287;47.554;7.844;2023-04-01T00:38:04;97042.31;;;17.12;58.03
55418;BME280;41287;47.554;7.844;2023-04-01T00:40:37;97035.31;;;17.11;58.04
55418;BME280;41287;47.554;7.844;2023-04-01T00:43:03;97042.31;;;17.12;58.08
55418;BME280;41287;47.554;7.844;2023-04-01T00:47:55;97038.03;;;17.11;58.00
55418;BME280;41287;47.554;7.844;2023-04-01T00:50:22;97035.31;;;17.11;58.00
55418;BME280;41287;47.554;7.844;2023-04-01T00:52:50;97033.41;;;17.11;58.00
55418;BME280;41287;47.554;7.844;2023-04-01T00:55:16;97039.94;;;17.10;58.12
55418;BME280;41287;47.554;7.844;2023-04-01T00:57:45;97036.88;;;17.12;58.02
55418;BME280;41287;47.554;7.844;2023-04-01T01:05:47;97036.44;;;17.10;58.16
55418;BME280;41287;47.554;7.844;2023-04-01T01:08:49;97041.06;;;17.09;58.02
55418;BME280;41287;47.554;7.844;2023-04-01T01:11:17;97029.09;;;17.10;58.15
55418;BME280;41287;47.554;7.844;2023-04-01T01:14:13;97028.66;;;17.08;58.16
55418;BME280;41287;47.554;7.844;2023-04-01T01:16:50;97029.91;;;17.11;58.10
55418;BME280;41287;47.554;7.844;2023-04-01T01:19:32;97017.84;;;17.08;58.22
55418;BME280;41287;47.554;7.844;2023-04-01T01:24:46;97019.41;;;17.09;58.16
55418;BME280;41287;47.554;7.844;2023-04-01T01:27:18;97019.41;;;17.09;58.19
55418;BME280;41287;47.554;7.844;2023-04-01T01:32:47;97007.81;;;17.09;58.09
55418;BME280;41287;47.554;7.844;2023-04-01T01:38:29;97009.72;;;17.08;58.24
55418;BME280;41287;47.554;7.844;2023-04-01T01:40:57;97008.59;;;17.09;58.28
55418;BME280;41287;47.554;7.844;2023-04-01T01:43:30;97001.59;;;17.08;58.33
55418;BME280;41287;47.554;7.844;2023-04-01T01:46:00;97010.16;;;17.10;58.25
55418;BME280;41287;47.554;7.844;2023-04-01T01:48:27;97011.28;;;17.09;58.27
55418;BME280;41287;47.554;7.844;2023-04-01T01:50:54;97005.88;;;17.09;58.26
55418;BME280;41287;47.554;7.844;2023-04-01T01:53:20;97010.50;;;17.09;58.19
55418;BME280;41287;47.554;7.844;2023-04-01T01:55:46;97004.31;;;17.08;58.36
55418;BME280;41287;47.554;7.844;2023-04-01T01:58:25;97009.72;;;17.08;58.25
55418;BME280;41287;47.554;7.844;2023-04-01T02:00:56;97014.00;;;17.09;58.34
55418;BME280;41287;47.554;7.844;2023-04-01T02:03:24;97011.28;;;17.09;58.13
55418;BME280;41287;47.554;7.844;2023-04-01T02:05:52;97003.16;;;17.09;58.25
55418;BME280;41287;47.554;7.844;2023-04-01T02:08:40;96999.22;;;17.07;58.25
55418;BME280;41287;47.554;7.844;2023-04-01T02:11:12;97005.88;;;17.09;58.32
55418;BME280;41287;47.554;7.844;2023-04-01T02:14:01;97000.03;;;17.07;58.35
55418;BME280;41287;47.554;7.844;2023-04-01T02:16:36;96978.38;;;17.07;58.40
55418;BME280;41287;47.554;7.844;2023-04-01T02:19:04;96997.75;;;17.09;58.32
55418;BME280;41287;47.554;7.844;2023-04-01T02:21:35;96986.94;;;17.09;58.38
55418;BME280;41287;47.554;7.844;2023-04-01T02:24:05;96988.06;;;17.08;58.34
55418;BME280;41287;47.554;7.844;2023-04-01T02:26:34;97002.38;;;17.09;58.24
55418;BME280;41287;47.554;7.844;2023-04-01T02:28:59;97005.09;;;17.09;58.41
55418;BME280;41287;47.554;7.844;2023-04-01T02:31:29;97007.00;;;17.08;58.46
55418;BME280;41287;47.554;7.844;2023-04-01T02:33:55;97012.44;;;17.08;58.56
55418;BME280;41287;47.554;7.844;2023-04-01T02:36:21;97011.63;;;17.08;58.11
55418;BME280;41287;47.554;7.844;2023-04-01T02:38:48;97007.81;;;17.09;58.40
55418;BME280;41287;47.554;7.844;2023-04-01T02:41:15;97009.72;;;17.08;58.21
55418;BME280;41287;47.554;7.844;2023-04-01T02:43:40;97008.94;;;17.08;58.35
55418;BME280;41287;47.554;7.844;2023-04-01T02:46:05;97009.72;;;17.08;58.36
55418;BME280;41287;47.554;7.844;2023-04-01T02:48:31;97006.22;;;17.08;58.32
55418;BME280;41287;47.554;7.844;2023-04-01T02:50:56;97006.22;;;17.08;58.40
55418;BME280;41287;47.554;7.844;2023-04-01T02:53:22;97007.00;;;17.08;58.40
55418;BME280;41287;47.554;7.844;2023-04-01T02:55:47;97000.81;;;17.08;58.38
55418;BME280;41287;47.554;7.844;2023-04-01T02:58:15;96992.34;;;17.09;58.36
55418;BME280;41287;47.554;7.844;2023-04-01T03:00:41;96995.41;;;17.08;58.49
55418;BME280;41287;47.554;7.844;2023-04-01T03:03:06;96989.19;;;17.07;58.52
55418;BME280;41287;47.554;7.844;2023-04-01T03:05:31;96980.72;;;17.09;58.65
55418;BME280;41287;47.554;7.844;2023-04-01T03:07:57;96984.56;;;17.08;58.70
55418;BME280;41287;47.554;7.844;2023-04-01T03:10:24;96997.31;;;17.07;58.49
55418;BME280;41287;47.554;7.844;2023-04-01T03:12:49;96984.56;;;17.08;58.55
55418;BME280;41287;47.554;7.844;2023-04-01T03:15:15;97013.56;;;17.07;58.42
55418;BME280;41287;47.554;7.844;2023-04-01T03:17:41;97021.34;;;17.09;58.50
55418;BME280;41287;47.554;7.844;2023-04-01T03:20:08;97010.84;;;17.07;58.36
55418;BME280;41287;47.554;7.844;2023-04-01T03:22:34;97025.16;;;17.08;58.37
55418;BME280;41287;47.554;7.844;2023-04-01T03:25:00;97046.81;;;17.08;58.50
55418;BME280;41287;47.554;7.844;2023-04-01T03:27:26;97029.00;;;17.07;58.14
55418;BME280;41287;47.554;7.844;2023-04-01T03:29:51;97053.03;;;17.08;58.48
55418;BME280;41287;47.554;7.844;2023-04-01T03:32:17;97020.88;;;17.07;58.44
55418;BME280;41287;47.554;7.844;2023-04-01T03:34:42;97009.28;;;17.06;58.53
55418;BME280;41287;47.554;7.844;2023-04-01T03:37:07;97008.13;;;17.07;58.43
55418;BME280;41287;47.554;7.844;2023-04-01T03:39:32;97000.03;;;17.07;58.44
55418;BME280;41287;47.554;7.844;2023-04-01T03:42:00;97007.34;;;17.07;58.43
55418;BME280;41287;47.554;7.844;2023-04-01T03:44:26;97007.34;;;17.07;58.56
55418;BME280;41287;47.554;7.844;2023-04-01T03:46:51;97008.13;;;17.07;58.44
55418;BME280;41287;47.554;7.844;2023-04-01T03:49:16;97012.75;;;17.07;58.51
55418;BME280;41287;47.554;7.844;2023-04-01T03:51:43;97007.34;;;17.07;58.58
55418;BME280;41287;47.554;7.844;2023-04-01T03:54:11;97010.84;;;17.07;58.67
55418;BME280;41287;47.554;7.844;2023-04-01T03:56:37;97012.75;;;17.07;58.61
55418;BME280;41287;47.554;7.844;2023-04-01T03:59:04;97010.06;;;17.07;58.66
55418;BME280;41287;47.554;7.844;2023-04-01T04:01:30;96998.44;;;17.06;58.73
55418;BME280;41287;47.554;7.844;2023-04-01T04:03:57;97003.84;;;17.06;58.69
55418;BME280;41287;47.554;7.844;2023-04-01T04:06:26;97003.09;;;17.06;58.53
55418;BME280;41287;47.554;7.844;2023-04-01T04:08:52;96997.69;;;17.06;58.92
55418;BME280;41287;47.554;7.844;2023-04-01T04:11:18;97007.34;;;17.07;58.57
55418;BME280;41287;47.554;7.844;2023-04-01T04:13:43;97004.66;;;17.07;58.66
55418;BME280;41287;47.554;7.844;2023-04-01T04:16:10;97004.66;;;17.07;58.53
55418;BME280;41287;47.554;7.844;2023-04-01T04:18:36;97007.34;;;17.07;58.53
55418;BME280;41287;47.554;7.844;2023-04-01T04:21:01;97014.69;;;17.06;58.63
55418;BME280;41287;47.554;7.844;2023-04-01T04:23:27;97015.47;;;17.07;58.71
55418;BME280;41287;47.554;7.844;2023-04-01T04:25:58;97016.63;;;17.06;58.66
55418;BME280;41287;47.554;7.844;2023-04-01T04:28:25;97011.97;;;17.06;58.69
55418;BME280;41287;47.554;7.844;2023-04-01T04:30:51;97007.34;;;17.07;58.58
55418;BME280;41287;47.554;7.844;2023-04-01T04:33:16;97004.66;;;17.07;58.66
55418;BME280;41287;47.554;7.844;2023-04-01T04:35:42;97005.81;;;17.06;58.71
55418;BME280;41287;47.554;7.844;2023-04-01T04:38:07;97008.50;;;17.06;58.50
55418;BME280;41287;47.554;7.844;2023-04-01T04:40:33;97011.22;;;17.06;58.65
55418;BME280;41287;47.554;7.844;2023-04-01T04:42:58;97013.13;;;17.05;58.63
55418;BME280;41287;47.554;7.844;2023-04-01T04:45:23;97018.19;;;17.07;58.66
55418;BME280;41287;47.554;7.844;2023-04-01T04:47:50;97007.72;;;17.05;58.74
55418;BME280;41287;47.554;7.844;2023-04-01T04:50:16;97009.28;;;17.06;58.80
55418;BME280;41287;47.554;7.844;2023-04-01T04:52:41;97014.69;;;17.06;58.66
55418;BME280;41287;47.554;7.844;2023-04-01T04:55:07;97007.72;;;17.05;58.75
55418;BME280;41287;47.554;7.844;2023-04-01T04:57:32;97005.81;;;17.06;58.68
55418;BME280;41287;47.554;7.844;2023-04-01T04:59:58;96998.81;;;17.05;58.68
55418;BME280;41287;47.554;7.844;2023-04-01T05:02:23;97006.56;;;17.06;58.87
55418;BME280;41287;47.554;7.844;2023-04-01T05:04:48;97001.53;;;17.05;58.67
55418;BME280;41287;47.554;7.844;2023-04-01T05:07:13;97008.84;;;17.04;58.73
55418;BME280;41287;47.554;7.844;2023-04-01T05:09:41;97015.84;;;17.05;58.73
55418;BME280;41287;47.554;7.844;2023-04-01T05:12:10;97015.84;;;17.05;58.85
55418;BME280;41287;47.554;7.844;2023-04-01T05:14:38;97017.75;;;17.05;58.83
55418;BME280;41287;47.554;7.844;2023-04-01T05:17:03;97013.13;;;17.05;58.70
55418;BME280;41287;47.554;7.844;2023-04-01T05:19:31;97004.22;;;17.05;58.85
55418;BME280;41287;47.554;7.844;2023-04-01T05:21:57;97012.34;;;17.05;58.77
55418;BME280;41287;47.554;7.844;2023-04-01T05:24:22;97009.66;;;17.05;58.69
55418;BME280;41287;47.554;7.844;2023-04-01T05:26:49;97011.56;;;17.04;58.69
55418;BME280;41287;47.554;7.844;2023-04-01T05:29:17;97013.13;;;17.05;58.92
55418;BME280;41287;47.554;7.844;2023-04-01T05:31:43;97020.47;;;17.05;58.77
55418;BME280;41287;47.554;7.844;2023-04-01T05:34:08;97005.38;;;17.04;58.76
55418;BME280;41287;47.554;7.844;2023-04-01T05:36:33;97011.56;;;17.04;59.06
55418;BME280;41287;47.554;7.844;2023-04-01T05:38:59;97001.53;;;17.05;58.85
55418;BME280;41287;47.554;7.844;2023-04-01T05:41:25;97000.75;;;17.04;58.84
55418;BME280;41287;47.554;7.844;2023-04-01T05:43:50;97002.31;;;17.05;58.90
55418;BME280;41287;47.554;7.844;2023-04-01T05:46:17;97005.38;;;17.04;58.74
55418;BME280;41287;47.554;7.844;2023-04-01T05:48:44;97006.16;;;17.04;58.75
55418;BME280;41287;47.554;7.844;2023-04-01T05:51:15;97004.56;;;17.03;58.85
55418;BME280;41287;47.554;7.844;2023-04-01T05:53:41;97013.47;;;17.04;59.05
55418;BME280;41287;47.554;7.844;2023-04-01T05:56:07;97010.78;;;17.04;58.84
55418;BME280;41287;47.554;7.844;2023-04-01T05:58:35;97004.56;;;17.03;58.85
55418;BME280;41287;47.554;7.844;2023-04-01T06:01:08;97012.69;;;17.03;58.84
55418;BME280;41287;47.554;7.844;2023-04-01T06:03:34;97009.66;;;17.05;58.81
55418;BME280;41287;47.554;7.844;2023-04-01T06:06:00;96994.53;;;17.04;58.92
55418;BME280;41287;47.554;7.844;2023-04-01T06:08:26;97004.56;;;17.03;58.87
55418;BME280;41287;47.554;7.844;2023-04-01T06:13:48;96993.75;;;17.03;58.97
55418;BME280;41287;47.554;7.844;2023-04-01T06:19:16;97003.00;;;17.02;59.25
55418;BME280;41287;47.554;7.844;2023-04-01T06:27:46;97002.31;;;17.05;59.34
55418;BME280;41287;47.554;7.844;2023-04-01T06:33:12;97000.19;;;17.14;59.80
55418;BME280;41287;47.554;7.844;2023-04-01T06:36:14;97002.38;;;17.24;59.65
55418;BME280;41287;47.554;7.844;2023-04-01T06:39:07;96989.38;;;17.30;59.52
55418;BME280;41287;47.554;7.844;2023-04-01T06:44:57;96992.25;;;17.37;60.14
55418;BME280;41287;47.554;7.844;2023-04-01T06:47:40;96990.78;;;17.40;60.82
55418;BME280;41287;47.554;7.844;2023-04-01T06:50:43;96994.34;;;17.44;61.63
55418;BME280;41287;47.554;7.844;2023-04-01T06:56:09;97008.38;;;17.49;63.14
55418;BME280;41287;47.554;7.844;2023-04-01T06:58:41;97010.75;;;17.51;63.53
55418;BME280;41287;47.554;7.844;2023-04-01T07:01:10;97010.03;;;17.54;64.11
55418;BME280;41287;47.554;7.844;2023-04-01T07:03:50;97003.91;;;17.57;65.05
55418;BME280;41287;47.554;7.844;2023-04-01T07:06:35;97006.72;;;17.60;65.78
55418;BME280;41287;47.554;7.844;2023-04-01T07:09:15;97012.25;;;17.64;67.87
55418;BME280;41287;47.554;7.844;2023-04-01T07:11:42;97005.34;;;17.66;67.27
55418;BME280;41287;47.554;7.844;2023-04-01T07:14:20;97005.75;;;17.68;68.16
55418;BME280;41287;47.554;7.844;2023-04-01T07:17:00;97017.81;;;17.71;67.46
55418;BME280;41287;47.554;7.844;2023-04-01T07:19:36;97013.63;;;17.73;67.46
55418;BME280;41287;47.554;7.844;2023-04-01T07:22:29;97003.13;;;17.72;66.45
55418;BME280;41287;47.554;7.844;2023-04-01T07:24:57;97008.13;;;17.70;65.44
55418;BME280;41287;47.554;7.844;2023-04-01T07:27:26;97005.34;;;17.66;64.20
55418;BME280;41287;47.554;7.844;2023-04-01T07:29:52;97012.69;;;17.66;62.99
55418;BME280;41287;47.554;7.844;2023-04-01T07:32:22;97019.56;;;17.63;61.89
55418;BME280;41287;47.554;7.844;2023-04-01T07:35:00;97021.06;;;17.61;60.63
55418;BME280;41287;47.554;7.844;2023-04-01T07:37:35;97021.41;;;17.59;60.08
55418;BME280;41287;47.554;7.844;2023-04-01T07:40:21;97020.59;;;17.59;59.77
55418;BME280;41287;47.554;7.844;2023-04-01T07:45:37;97030.56;;;17.55;58.68
55418;BME280;41287;47.554;7.844;2023-04-01T07:50:35;97023.56;;;17.54;57.97
55418;BME280;41287;47.554;7.844;2023-04-01T07:58:40;97037.47;;;17.52;57.13
55418;BME280;41287;47.554;7.844;2023-04-01T08:01:23;97038.63;;;17.51;56.84
55418;BME280;41287;47.554;7.844;2023-04-01T08:07:15;97045.16;;;17.50;56.80
55418;BME280;41287;47.554;7.844;2023-04-01T08:10:00;97038.97;;;17.50;56.55
55418;BME280;41287;47.554;7.844;2023-04-01T08:12:37;97056.00;;;17.50;56.48
55418;BME280;41287;47.554;7.844;2023-04-01T08:22:58;97061.41;;;17.50;56.00
55418;BME280;41287;47.554;7.844;2023-04-01T08:25:28;97050.94;;;17.49;56.04
55418;BME280;41287;47.554;7.844;2023-04-01T08:28:11;97055.94;;;17.47;55.85
55418;BME280;41287;47.554;7.844;2023-04-01T08:30:48;97042.00;;;17.48;55.82
55418;BME280;41287;47.554;7.844;2023-04-01T08:33:25;97048.22;;;17.49;55.61
55418;BME280;41287;47.554;7.844;2023-04-01T08:38:55;97035.81;;;17.48;55.45
55418;BME280;41287;47.554;7.844;2023-04-01T08:41:37;97047.81;;;17.47;55.46
55418;BME280;41287;47.554;7.844;2023-04-01T08:44:22;97042.38;;;17.47;55.28
55418;BME280;41287;47.554;7.844;2023-04-01T08:47:20;97046.22;;;17.46;55.32
55418;BME280;41287;47.554;7.844;2023-04-01T08:54:18;97053.56;;;17.45;54.89
55418;BME280;41287;47.554;7.844;2023-04-01T08:56:23;97049.72;;;17.46;54.84
55418;BME280;41287;47.554;7.844;2023-04-01T09:04:38;97047.34;;;17.45;54.86
55418;BME280;41287;47.554;7.844;2023-04-01T09:15:35;97053.91;;;17.44;54.51
55418;BME280;41287;47.554;7.844;2023-04-01T09:29:14;97055.13;;;17.46;54.49
55418;BME280;41287;47.554;7.844;2023-04-01T09:31:46;97045.44;;;17.45;54.53
55418;BME280;41287;47.554;7.844;2023-04-01T09:40:02;97061.25;;;17.43;54.28
55418;BME280;41287;47.554;7.844;2023-04-01T09:45:41;97058.97;;;17.45;54.33
55418;BME280;41287;47.554;7.844;2023-04-01T09:53:56;97069.38;;;17.43;54.00
55418;BME280;41287;47.554;7.844;2023-04-01T10:08:46;97072.41;;;17.42;53.72
55418;BME280;41287;47.554;7.844;2023-04-01T10:14:23;97071.28;;;17.43;53.73
55418;BME280;41287;47.554;7.844;2023-04-01T10:28:16;97074.44;;;17.45;53.69
55418;BME280;41287;47.554;7.844;2023-04-01T10:31:11;97074.00;;;17.43;53.69
55418;BME280;41287;47.554;7.844;2023-04-01T10:33:59;97082.13;;;17.43;53.63
55418;BME280;41287;47.554;7.844;2023-04-01T10:39:20;97074.78;;;17.43;53.30
55418;BME280;41287;47.554;7.844;2023-04-01T10:58:26;97073.66;;;17.44;53.22
55418;BME280;41287;47.554;7.844;2023-04-01T11:10:02;97091.38;;;17.42;53.22
55418;BME280;41287;47.554;7.844;2023-04-01T11:15:34;97101.06;;;17.43;53.15
55418;BME280;41287;47.554;7.844;2023-04-01T11:29:41;97104.56;;;17.43;52.94
55418;BME280;41287;47.554;7.844;2023-04-01T11:44:20;97100.28;;;17.42;52.86
55418;BME280;41287;47.554;7.844;2023-04-01T11:47:24;97096.78;;;17.42;53.00
55418;BME280;41287;47.554;7.844;2023-04-01T11:50:20;97086.75;;;17.42;52.55
55418;BME280;41287;47.554;7.844;2023-04-01T11:53:07;97082.13;;;17.43;52.77
55418;BME280;41287;47.554;7.844;2023-04-01T11:58:49;97078.63;;;17.42;52.84
55418;BME280;41287;47.554;7.844;2023-04-01T12:01:21;97082.13;;;17.43;52.67
55418;BME280;41287;47.554;7.844;2023-04-01T12:07:15;97084.81;;;17.43;52.59
55418;BME280;41287;47.554;7.844;2023-04-01T12:09:59;97073.22;;;17.42;52.64
55418;BME280;41287;47.554;7.844;2023-04-01T12:13:04;97074.00;;;17.43;52.61
55418;BME280;41287;47.554;7.844;2023-04-01T12:18:20;97074.00;;;17.43;52.53
55418;BME280;41287;47.554;7.844;2023-04-01T12:20:55;97073.22;;;17.42;52.57
55418;BME280;41287;47.554;7.844;2023-04-01T12:26:21;97063.59;;;17.45;52.47
55418;BME280;41287;47.554;7.844;2023-04-01T12:31:39;97049.63;;;17.43;52.51
55418;BME280;41287;47.554;7.844;2023-04-01T12:34:38;97051.53;;;17.42;52.49
55418;BME280;41287;47.554;7.844;2023-04-01T12:39:51;97037.66;;;17.44;52.39
55418;BME280;41287;47.554;7.844;2023-04-01T12:53:25;97051.19;;;17.44;52.25
55418;BME280;41287;47.554;7.844;2023-04-01T12:56:03;97054.34;;;17.46;52.28
55418;BME280;41287;47.554;7.844;2023-04-01T12:59:00;97054.69;;;17.44;52.10
55418;BME280;41287;47.554;7.844;2023-04-01T13:15:50;97064.75;;;17.44;52.29
55418;BME280;41287;47.554;7.844;2023-04-01T13:29:33;97084.47;;;17.44;52.12
55418;BME280;41287;47.554;7.844;2023-04-01T13:32:08;97091.47;;;17.45;52.01
55418;BME280;41287;47.554;7.844;2023-04-01T13:34:47;97077.16;;;17.45;52.08
55418;BME280;41287;47.554;7.844;2023-04-01T13:40:26;97064.75;;;17.44;52.12
55418;BME280;41287;47.554;7.844;2023-04-01T13:43:04;97073.66;;;17.44;52.04
55418;BME280;41287;47.554;7.844;2023-04-01T13:46:05;97081.00;;;17.44;51.91
55418;BME280;41287;47.554;7.844;2023-04-01T13:48:48;97081.00;;;17.44;51.89
55418;BME280;41287;47.554;7.844;2023-04-01T13:51:52;97084.47;;;17.44;51.81
55418;BME280;41287;47.554;7.844;2023-04-01T14:08:07;97082.56;;;17.45;51.81
55418;BME280;41287;47.554;7.844;2023-04-01T14:11:24;97077.16;;;17.45;51.96
55418;BME280;41287;47.554;7.844;2023-04-01T14:14:23;97074.44;;;17.45;51.74
55418;BME280;41287;47.554;7.844;2023-04-01T14:22:38;97068.22;;;17.44;51.68
55418;BME280;41287;47.554;7.844;2023-04-01T14:25:39;97062.38;;;17.42;51.82
55418;BME280;41287;47.554;7.844;2023-04-01T14:30:58;97062.03;;;17.44;51.68
55418;BME280;41287;47.554;7.844;2023-04-01T14:45:17;97062.81;;;17.44;51.50
55418;BME280;41287;47.554;7.844;2023-04-01T14:47:53;97064.41;;;17.45;51.57
55418;BME280;41287;47.554;7.844;2023-04-01T14:50:24;97059.78;;;17.46;51.34
55418;BME280;41287;47.554;7.844;2023-04-01T14:53:02;97056.63;;;17.44;51.31
55418;BME280;41287;47.554;7.844;2023-04-01T14:58:17;97066.31;;;17.45;51.34
55418;BME280;41287;47.554;7.844;2023-04-01T15:03:18;97067.09;;;17.45;51.34
55418;BME280;41287;47.554;7.844;2023-04-01T15:05:47;97079.50;;;17.46;51.38
55418;BME280;41287;47.554;7.844;2023-04-01T15:11:02;97072.53;;;17.45;51.41
55418;BME280;41287;47.554;7.844;2023-04-01T15:14:13;97067.91;;;17.46;51.13
55418;BME280;41287;47.554;7.844;2023-04-01T15:17:02;97058.63;;;17.47;51.29
55418;BME280;41287;47.554;7.844;2023-04-01T15:28:17;97067.91;;;17.46;51.11
55418;BME280;41287;47.554;7.844;2023-04-01T15:33:23;97066.75;;;17.47;51.25
55418;BME280;41287;47.554;7.844;2023-04-01T15:36:08;97066.75;;;17.47;51.20
55418;BME280;41287;47.554;7.844;2023-04-01T15:38:50;97065.97;;;17.46;51.39
55418;BME280;41287;47.554;7.844;2023-04-01T15:44:44;97061.34;;;17.47;51.16
55418;BME280;41287;47.554;7.844;2023-04-01T15:47:28;97058.63;;;17.47;51.26
55418;BME280;41287;47.554;7.844;2023-04-01T15:52:43;97060.56;;;17.46;51.21
55418;BME280;41287;47.554;7.844;2023-04-01T15:55:48;97060.19;;;17.48;51.23
55418;BME280;41287;47.554;7.844;2023-04-01T15:58:48;97056.69;;;17.47;51.04
55418;BME280;41287;47.554;7.844;2023-04-01T16:12:48;97039.69;;;17.47;50.90
55418;BME280;41287;47.554;7.844;2023-04-01T16:21:08;97029.59;;;17.47;50.87
55418;BME280;41287;47.554;7.844;2023-04-01T16:23:42;97024.97;;;17.48;50.87
55418;BME280;41287;47.554;7.844;2023-04-01T16:26:39;97029.59;;;17.47;50.73
55418;BME280;41287;47.554;7.844;2023-04-01T16:29:10;97028.47;;;17.48;50.97
55418;BME280;41287;47.554;7.844;2023-04-01T16:31:43;97024.97;;;17.48;50.92
55418;BME280;41287;47.554;7.844;2023-04-01T16:34:19;97029.59;;;17.47;51.12
55418;BME280;41287;47.554;7.844;2023-04-01T16:36:49;97031.19;;;17.48;50.86
55418;BME280;41287;47.554;7.844;2023-04-01T16:39:35;97055.94;;;17.47;50.96
55418;BME280;41287;47.554;7.844;2023-04-01T16:48:14;97074.50;;;17.48;50.88
55418;BME280;41287;47.554;7.844;2023-04-01T16:51:04;97073.38;;;17.49;50.86
55418;BME280;41287;47.554;7.844;2023-04-01T16:53:41;97077.22;;;17.48;50.72
55418;BME280;41287;47.554;7.844;2023-04-01T16:56:25;97086.13;;;17.49;50.60
55418;BME280;41287;47.554;7.844;2023-04-01T16:59:03;97092.69;;;17.48;50.73
55418;BME280;41287;47.554;7.844;2023-04-01T17:01:52;97089.97;;;17.48;50.81
55418;BME280;41287;47.554;7.844;2023-04-01T17:04:32;97092.69;;;17.48;50.83
55418;BME280;41287;47.554;7.844;2023-04-01T17:07:10;97095.03;;;17.49;50.94
55418;BME280;41287;47.554;7.844;2023-04-01T17:15:07;97093.47;;;17.48;50.81
55418;BME280;41287;47.554;7.844;2023-04-01T17:36:45;97100.13;;;17.51;51.02
55418;BME280;41287;47.554;7.844;2023-04-01T17:41:56;97105.88;;;17.49;51.53
55418;BME280;41287;47.554;7.844;2023-04-01T17:47:43;97110.44;;;17.45;52.04
55418;BME280;41287;47.554;7.844;2023-04-01T17:50:23;97105.44;;;17.47;52.05
55418;BME280;41287;47.554;7.844;2023-04-01T17:53:00;97103.88;;;17.46;52.04
55418;BME280;41287;47.554;7.844;2023-04-01T17:58:22;97105.34;;;17.44;52.11
55418;BME280;41287;47.554;7.844;2023-04-01T18:01:04;97106.50;;;17.43;52.38
55418;BME280;41287;47.554;7.844;2023-04-01T18:22:45;97153.66;;;17.42;52.95
55418;BME280;41287;47.554;7.844;2023-04-01T18:25:35;97155.16;;;17.39;53.09
55418;BME280;41287;47.554;7.844;2023-04-01T18:30:43;97174.91;;;17.40;53.19
55418;BME280;41287;47.554;7.844;2023-04-01T18:33:22;97176.44;;;17.41;52.88
55418;BME280;41287;47.554;7.844;2023-04-01T18:35:57;97181.06;;;17.40;53.25
55418;BME280;41287;47.554;7.844;2023-04-01T18:38:33;97180.66;;;17.38;53.43
55418;BME280;41287;47.554;7.844;2023-04-01T18:41:40;97192.63;;;17.37;53.33
55418;BME280;41287;47.554;7.844;2023-04-01T18:44:41;97201.53;;;17.37;53.44
55418;BME280;41287;47.554;7.844;2023-04-01T18:47:25;97206.94;;;17.37;53.54
55418;BME280;41287;47.554;7.844;2023-04-01T18:49:59;97210.09;;;17.40;53.39
55418;BME280;41287;47.554;7.844;2023-04-01T18:52:47;97210.78;;;17.36;53.71
55418;BME280;41287;47.554;7.844;2023-04-01T18:55:22;97219.34;;;17.38;53.44
55418;BME280;41287;47.554;7.844;2023-04-01T18:57:52;97230.53;;;17.37;53.64
55418;BME280;41287;47.554;7.844;2023-04-01T19:00:26;97232.44;;;17.36;53.71
55418;BME280;41287;47.554;7.844;2023-04-01T19:03:02;97233.22;;;17.37;53.81
55418;BME280;41287;47.554;7.844;2023-04-01T19:05:34;97234.81;;;17.38;53.82
55418;BME280;41287;47.554;7.844;2023-04-01T19:08:19;97237.88;;;17.36;53.74
55418;BME280;41287;47.554;7.844;2023-04-01T19:11:11;97239.78;;;17.36;53.99
55418;BME280;41287;47.554;7.844;2023-04-01T19:13:58;97230.88;;;17.35;53.82
55418;BME280;41287;47.554;7.844;2023-04-01T19:19:07;97226.25;;;17.36;54.03
55418;BME280;41287;47.554;7.844;2023-04-01T19:21:41;97231.66;;;17.36;53.80
55418;BME280;41287;47.554;7.844;2023-04-01T19:32:58;97213.03;;;17.34;54.17
55418;BME280;41287;47.554;7.844;2023-04-01T19:35:40;97213.84;;;17.35;54.12
55418;BME280;41287;47.554;7.844;2023-04-01T19:38:14;97211.91;;;17.35;54.05
55418;BME280;41287;47.554;7.844;2023-04-01T19:41:19;97219.94;;;17.32;54.19
55418;BME280;41287;47.554;7.844;2023-04-01T20:00:24;97219.59;;;17.33;54.21
55418;BME280;41287;47.554;7.844;2023-04-01T20:10:56;97230.41;;;17.33;54.45
55418;BME280;41287;47.554;7.844;2023-04-01T20:16:03;97239.25;;;17.30;54.36
55418;BME280;41287;47.554;7.844;2023-04-01T20:18:39;97249.38;;;17.33;54.35
55418;BME280;41287;47.554;7.844;2023-04-01T20:21:18;97248.94;;;17.31;54.41
55418;BME280;41287;47.554;7.844;2023-04-01T20:26:24;97261.34;;;17.32;54.53
55418;BME280;41287;47.554;7.844;2023-04-01T20:31:41;97262.50;;;17.31;54.42
55418;BME280;41287;47.554;7.844;2023-04-01T20:34:59;97267.13;;;17.31;54.63
55418;BME280;41287;47.554;7.844;2023-04-01T20:37:15;97266.31;;;17.30;54.52
55418;BME280;41287;47.554;7.844;2023-04-01T20:40:19;97276.38;;;17.30;54.75
55418;BME280;41287;47.554;7.844;2023-04-01T20:48:59;97271.75;;;17.30;54.71